sensor_id;sensor_type;location;lat;lon;timestamp;P1;durP1;ratioP1;P2;durP2;ratioP2
66425;SDS011;53237;46.158;14.604;2024-01-15T00:00:41;21.50;;;15.77;;
66425;SDS011;53237;46.158;14.604;2024-01-15T00:03:07;21.15;;;14.68;;
66425;SDS011;53237;46.158;14.604;2024-01-15T00:05:34;21.45;;;15.13;;
66425;SDS011;53237;46.158;14.604;2024-01-15T00:08:00;19.33;;;14.05;;
66425;SDS011;53237;46.158;14.604;2024-01-15T00:10:26;22.05;;;15.40;;
66425;SDS011;53237;46.158;14.604;2024-01-15T00:12:52;19.58;;;14.05;;
66425;SDS011;53237;46.158;14.604;2024-01-15T00:15:18;20.92;;;13.90;;
66425;SDS011;53237;46.158;14.604;2024-01-15T00:17:45;19.88;;;13.68;;
66425;SDS011;53237;46.158;14.604;2024-01-15T00:20:11;20.08;;;14.60;;
66425;SDS011;53237;46.158;14.604;2024-01-15T00:22:37;23.55;;;14.98;;
66425;SDS011;53237;46.158;14.604;2024-01-15T00:25:03;19.63;;;14.10;;
66425;SDS011;53237;46.158;14.604;2024-01-15T00:27:29;19.50;;;13.85;;
66425;SDS011;53237;46.158;14.604;2024-01-15T00:29:55;16.10;;;12.85;;
66425;SDS011;53237;46.158;14.604;2024-01-15T00:32:21;17.15;;;13.07;;
66425;SDS011;53237;46.158;14.604;2024-01-15T00:34:47;18.85;;;12.75;;
66425;SDS011;53237;46.158;14.604;2024-01-15T00:37:13;17.73;;;12.43;;
66425;SDS011;53237;46.158;14.604;2024-01-15T00:39:39;17.08;;;12.65;;
66425;SDS011;53237;46.158;14.604;2024-01-15T00:42:05;19.75;;;14.25;;
66425;SDS011;53237;46.158;14.604;2024-01-15T00:44:31;20.42;;;13.38;;
66425;SDS011;53237;46.158;14.604;2024-01-15T00:46:57;18.65;;;13.02;;
66425;SDS011;53237;46.158;14.604;2024-01-15T00:49:23;17.95;;;13.00;;
66425;SDS011;53237;46.158;14.604;2024-01-15T00:51:49;18.02;;;13.10;;
66425;SDS011;53237;46.158;14.604;2024-01-15T00:54:15;18.20;;;13.23;;
66425;SDS011;53237;46.158;14.604;2024-01-15T00:56:42;18.33;;;12.85;;
66425;SDS011;53237;46.158;14.604;2024-01-15T00:59:08;18.88;;;12.68;;
66425;SDS011;53237;46.158;14.604;2024-01-15T01:01:35;17.63;;;12.80;;
66425;SDS011;53237;46.158;14.604;2024-01-15T01:04:03;17.00;;;12.23;;
66425;SDS011;53237;46.158;14.604;2024-01-15T01:06:29;17.67;;;12.57;;
66425;SDS011;53237;46.158;14.604;2024-01-15T01:08:55;16.52;;;11.43;;
66425;SDS011;53237;46.158;14.604;2024-01-15T01:11:21;17.40;;;12.40;;
66425;SDS011;53237;46.158;14.604;2024-01-15T01:13:47;16.05;;;12.45;;
66425;SDS011;53237;46.158;14.604;2024-01-15T01:16:13;17.35;;;12.18;;
66425;SDS011;53237;46.158;14.604;2024-01-15T01:18:39;18.63;;;12.23;;
66425;SDS011;53237;46.158;14.604;2024-01-15T01:21:05;18.45;;;12.63;;
66425;SDS011;53237;46.158;14.604;2024-01-15T01:23:31;16.23;;;12.25;;
66425;SDS011;53237;46.158;14.604;2024-01-15T01:25:57;17.88;;;12.35;;
66425;SDS011;53237;46.158;14.604;2024-01-15T01:28:22;15.18;;;11.45;;
66425;SDS011;53237;46.158;14.604;2024-01-15T01:30:48;16.38;;;11.43;;
66425;SDS011;53237;46.158;14.604;2024-01-15T01:33:15;14.15;;;11.18;;
66425;SDS011;53237;46.158;14.604;2024-01-15T01:35:41;14.88;;;11.02;;
66425;SDS011;53237;46.158;14.604;2024-01-15T01:38:07;13.50;;;10.32;;
66425;SDS011;53237;46.158;14.604;2024-01-15T01:40:33;17.60;;;11.88;;
66425;SDS011;53237;46.158;14.604;2024-01-15T01:42:59;14.80;;;10.70;;
66425;SDS011;53237;46.158;14.604;2024-01-15T01:45:25;13.50;;;10.05;;
66425;SDS011;53237;46.158;14.604;2024-01-15T01:47:51;15.27;;;11.23;;
66425;SDS011;53237;46.158;14.604;2024-01-15T01:50:17;16.55;;;11.40;;
66425;SDS011;53237;46.158;14.604;2024-01-15T01:52:43;13.95;;;10.65;;
66425;SDS011;53237;46.158;14.604;2024-01-15T01:55:09;15.05;;;10.45;;
66425;SDS011;53237;46.158;14.604;2024-01-15T01:57:36;15.88;;;11.60;;
66425;SDS011;53237;46.158;14.604;2024-01-15T02:00:02;15.15;;;10.80;;
66425;SDS011;53237;46.158;14.604;2024-01-15T02:02:29;14.45;;;10.48;;
66425;SDS011;53237;46.158;14.604;2024-01-15T02:04:55;13.98;;;9.70;;
66425;SDS011;53237;46.158;14.604;2024-01-15T02:07:21;15.90;;;10.48;;
66425;SDS011;53237;46.158;14.604;2024-01-15T02:09:47;14.35;;;10.30;;
66425;SDS011;53237;46.158;14.604;2024-01-15T02:12:13;15.32;;;11.27;;
66425;SDS011;53237;46.158;14.604;2024-01-15T02:14:39;16.55;;;11.88;;
66425;SDS011;53237;46.158;14.604;2024-01-15T02:17:05;17.38;;;12.00;;
66425;SDS011;53237;46.158;14.604;2024-01-15T02:19:32;15.93;;;11.63;;
66425;SDS011;53237;46.158;14.604;2024-01-15T02:21:58;16.27;;;11.63;;
66425;SDS011;53237;46.158;14.604;2024-01-15T02:24:24;18.80;;;12.52;;
66425;SDS011;53237;46.158;14.604;2024-01-15T02:26:50;16.13;;;11.85;;
66425;SDS011;53237;46.158;14.604;2024-01-15T02:29:16;21.58;;;14.70;;
66425;SDS011;53237;46.158;14.604;2024-01-15T02:31:43;19.15;;;13.65;;
66425;SDS011;53237;46.158;14.604;2024-01-15T02:34:09;20.42;;;14.35;;
66425;SDS011;53237;46.158;14.604;2024-01-15T02:36:35;17.20;;;12.95;;
66425;SDS011;53237;46.158;14.604;2024-01-15T02:39:01;26.92;;;18.48;;
66425;SDS011;53237;46.158;14.604;2024-01-15T02:41:27;20.85;;;15.20;;
66425;SDS011;53237;46.158;14.604;2024-01-15T02:43:53;26.63;;;17.27;;
66425;SDS011;53237;46.158;14.604;2024-01-15T02:46:19;21.88;;;14.73;;
66425;SDS011;53237;46.158;14.604;2024-01-15T02:48:45;18.67;;;14.13;;
66425;SDS011;53237;46.158;14.604;2024-01-15T02:51:11;19.67;;;13.68;;
66425;SDS011;53237;46.158;14.604;2024-01-15T02:53:37;19.00;;;13.98;;
66425;SDS011;53237;46.158;14.604;2024-01-15T02:56:03;17.55;;;13.15;;
66425;SDS011;53237;46.158;14.604;2024-01-15T02:58:29;21.77;;;15.85;;
66425;SDS011;53237;46.158;14.604;2024-01-15T03:00:55;19.58;;;14.52;;
66425;SDS011;53237;46.158;14.604;2024-01-15T03:03:21;17.55;;;13.27;;
66425;SDS011;53237;46.158;14.604;2024-01-15T03:05:47;20.58;;;15.07;;
66425;SDS011;53237;46.158;14.604;2024-01-15T03:08:13;24.50;;;16.40;;
66425;SDS011;53237;46.158;14.604;2024-01-15T03:10:39;18.80;;;13.65;;
66425;SDS011;53237;46.158;14.604;2024-01-15T03:13:05;18.90;;;13.90;;
66425;SDS011;53237;46.158;14.604;2024-01-15T03:15:31;19.88;;;13.40;;
66425;SDS011;53237;46.158;14.604;2024-01-15T03:17:57;19.17;;;13.40;;
66425;SDS011;53237;46.158;14.604;2024-01-15T03:20:23;18.42;;;13.13;;
66425;SDS011;53237;46.158;14.604;2024-01-15T03:22:49;17.30;;;11.88;;
66425;SDS011;53237;46.158;14.604;2024-01-15T03:25:15;18.33;;;12.65;;
66425;SDS011;53237;46.158;14.604;2024-01-15T03:27:41;16.95;;;12.57;;
66425;SDS011;53237;46.158;14.604;2024-01-15T03:30:07;20.73;;;14.57;;
66425;SDS011;53237;46.158;14.604;2024-01-15T03:32:33;19.70;;;13.68;;
66425;SDS011;53237;46.158;14.604;2024-01-15T03:35:00;19.25;;;13.30;;
66425;SDS011;53237;46.158;14.604;2024-01-15T03:37:26;22.77;;;16.90;;
66425;SDS011;53237;46.158;14.604;2024-01-15T03:39:52;20.13;;;14.27;;
66425;SDS011;53237;46.158;14.604;2024-01-15T03:42:18;19.52;;;14.35;;
66425;SDS011;53237;46.158;14.604;2024-01-15T03:44:44;44.47;;;32.65;;
66425;SDS011;53237;46.158;14.604;2024-01-15T03:47:10;23.88;;;16.67;;
66425;SDS011;53237;46.158;14.604;2024-01-15T03:49:36;20.40;;;14.30;;
66425;SDS011;53237;46.158;14.604;2024-01-15T03:52:02;18.95;;;13.68;;
66425;SDS011;53237;46.158;14.604;2024-01-15T03:54:28;20.05;;;14.02;;
66425;SDS011;53237;46.158;14.604;2024-01-15T03:56:54;19.92;;;14.32;;
66425;SDS011;53237;46.158;14.604;2024-01-15T03:59:20;22.45;;;14.77;;
66425;SDS011;53237;46.158;14.604;2024-01-15T04:01:49;18.05;;;12.63;;
66425;SDS011;53237;46.158;14.604;2024-01-15T04:04:18;18.23;;;13.18;;
66425;SDS011;53237;46.158;14.604;2024-01-15T04:06:44;17.67;;;13.18;;
66425;SDS011;53237;46.158;14.604;2024-01-15T04:09:11;21.60;;;14.32;;
66425;SDS011;53237;46.158;14.604;2024-01-15T04:11:38;19.15;;;13.45;;
66425;SDS011;53237;46.158;14.604;2024-01-15T04:14:04;17.90;;;12.13;;
66425;SDS011;53237;46.158;14.604;2024-01-15T04:16:30;17.77;;;12.80;;
66425;SDS011;53237;46.158;14.604;2024-01-15T04:18:56;16.95;;;12.13;;
66425;SDS011;53237;46.158;14.604;2024-01-15T04:21:23;16.45;;;12.15;;
66425;SDS011;53237;46.158;14.604;2024-01-15T04:23:49;16.05;;;11.57;;
66425;SDS011;53237;46.158;14.604;2024-01-15T04:26:15;18.60;;;13.40;;
66425;SDS011;53237;46.158;14.604;2024-01-15T04:28:41;19.17;;;13.90;;
66425;SDS011;53237;46.158;14.604;2024-01-15T04:31:07;22.27;;;15.40;;
66425;SDS011;53237;46.158;14.604;2024-01-15T04:33:33;17.55;;;12.70;;
66425;SDS011;53237;46.158;14.604;2024-01-15T04:36:03;23.38;;;15.82;;
66425;SDS011;53237;46.158;14.604;2024-01-15T04:38:30;19.45;;;14.02;;
66425;SDS011;53237;46.158;14.604;2024-01-15T04:40:57;16.35;;;12.00;;
66425;SDS011;53237;46.158;14.604;2024-01-15T04:43:23;18.27;;;12.20;;
66425;SDS011;53237;46.158;14.604;2024-01-15T04:45:49;16.48;;;12.18;;
66425;SDS011;53237;46.158;14.604;2024-01-15T04:48:17;15.10;;;11.45;;
66425;SDS011;53237;46.158;14.604;2024-01-15T04:50:42;15.63;;;11.40;;
66425;SDS011;53237;46.158;14.604;2024-01-15T04:53:08;21.17;;;13.80;;
66425;SDS011;53237;46.158;14.604;2024-01-15T04:55:34;23.08;;;14.38;;
66425;SDS011;53237;46.158;14.604;2024-01-15T04:58:01;19.10;;;13.07;;
66425;SDS011;53237;46.158;14.604;2024-01-15T05:00:27;17.70;;;12.65;;
66425;SDS011;53237;46.158;14.604;2024-01-15T05:02:53;19.33;;;13.20;;
66425;SDS011;53237;46.158;14.604;2024-01-15T05:05:19;18.77;;;13.18;;
66425;SDS011;53237;46.158;14.604;2024-01-15T05:07:45;18.25;;;12.32;;
66425;SDS011;53237;46.158;14.604;2024-01-15T05:10:11;17.27;;;12.27;;
66425;SDS011;53237;46.158;14.604;2024-01-15T05:12:37;16.35;;;10.98;;
66425;SDS011;53237;46.158;14.604;2024-01-15T05:15:03;16.10;;;11.07;;
66425;SDS011;53237;46.158;14.604;2024-01-15T05:17:29;16.02;;;11.70;;
66425;SDS011;53237;46.158;14.604;2024-01-15T05:19:55;15.50;;;10.50;;
66425;SDS011;53237;46.158;14.604;2024-01-15T05:22:21;13.80;;;10.15;;
66425;SDS011;53237;46.158;14.604;2024-01-15T05:24:49;14.65;;;10.63;;
66425;SDS011;53237;46.158;14.604;2024-01-15T05:27:15;16.88;;;11.63;;
66425;SDS011;53237;46.158;14.604;2024-01-15T05:29:41;26.73;;;17.17;;
66425;SDS011;53237;46.158;14.604;2024-01-15T05:32:07;18.08;;;13.10;;
66425;SDS011;53237;46.158;14.604;2024-01-15T05:34:33;17.15;;;12.18;;
66425;SDS011;53237;46.158;14.604;2024-01-15T05:36:59;16.35;;;10.73;;
66425;SDS011;53237;46.158;14.604;2024-01-15T05:39:25;15.30;;;11.13;;
66425;SDS011;53237;46.158;14.604;2024-01-15T05:41:51;15.18;;;10.90;;
66425;SDS011;53237;46.158;14.604;2024-01-15T05:44:17;15.30;;;11.20;;
66425;SDS011;53237;46.158;14.604;2024-01-15T05:46:44;15.50;;;11.05;;
66425;SDS011;53237;46.158;14.604;2024-01-15T05:49:10;17.48;;;11.38;;
66425;SDS011;53237;46.158;14.604;2024-01-15T05:51:36;16.98;;;11.45;;
66425;SDS011;53237;46.158;14.604;2024-01-15T05:54:02;15.25;;;10.82;;
66425;SDS011;53237;46.158;14.604;2024-01-15T05:56:28;15.45;;;10.48;;
66425;SDS011;53237;46.158;14.604;2024-01-15T05:58:54;16.35;;;11.32;;
66425;SDS011;53237;46.158;14.604;2024-01-15T06:01:20;18.67;;;11.75;;
66425;SDS011;53237;46.158;14.604;2024-01-15T06:03:46;19.77;;;11.75;;
66425;SDS011;53237;46.158;14.604;2024-01-15T06:06:12;15.63;;;10.73;;
66425;SDS011;53237;46.158;14.604;2024-01-15T06:08:38;15.23;;;10.80;;
66425;SDS011;53237;46.158;14.604;2024-01-15T06:11:04;13.90;;;9.75;;
66425;SDS011;53237;46.158;14.604;2024-01-15T06:13:30;15.80;;;9.90;;
66425;SDS011;53237;46.158;14.604;2024-01-15T06:15:56;14.35;;;10.73;;
66425;SDS011;53237;46.158;14.604;2024-01-15T06:18:22;13.60;;;9.75;;
66425;SDS011;53237;46.158;14.604;2024-01-15T06:20:48;12.80;;;9.40;;
66425;SDS011;53237;46.158;14.604;2024-01-15T06:23:13;14.82;;;10.55;;
66425;SDS011;53237;46.158;14.604;2024-01-15T06:25:39;13.55;;;10.50;;
66425;SDS011;53237;46.158;14.604;2024-01-15T06:28:05;13.07;;;9.40;;
66425;SDS011;53237;46.158;14.604;2024-01-15T06:30:31;13.05;;;8.93;;
66425;SDS011;53237;46.158;14.604;2024-01-15T06:32:57;12.70;;;9.60;;
66425;SDS011;53237;46.158;14.604;2024-01-15T06:35:23;12.40;;;9.13;;
66425;SDS011;53237;46.158;14.604;2024-01-15T06:37:49;12.63;;;9.05;;
66425;SDS011;53237;46.158;14.604;2024-01-15T06:40:15;12.85;;;9.07;;
66425;SDS011;53237;46.158;14.604;2024-01-15T06:42:41;13.20;;;9.23;;
66425;SDS011;53237;46.158;14.604;2024-01-15T06:45:07;12.18;;;8.65;;
66425;SDS011;53237;46.158;14.604;2024-01-15T06:47:34;13.68;;;9.48;;
66425;SDS011;53237;46.158;14.604;2024-01-15T06:50:00;13.88;;;9.60;;
66425;SDS011;53237;46.158;14.604;2024-01-15T06:52:26;13.68;;;9.57;;
66425;SDS011;53237;46.158;14.604;2024-01-15T06:54:52;12.75;;;9.30;;
66425;SDS011;53237;46.158;14.604;2024-01-15T06:57:18;13.27;;;9.60;;
66425;SDS011;53237;46.158;14.604;2024-01-15T06:59:45;13.13;;;9.40;;
66425;SDS011;53237;46.158;14.604;2024-01-15T07:02:11;12.88;;;9.65;;
66425;SDS011;53237;46.158;14.604;2024-01-15T07:04:37;13.48;;;9.50;;
66425;SDS011;53237;46.158;14.604;2024-01-15T07:07:03;13.30;;;9.90;;
66425;SDS011;53237;46.158;14.604;2024-01-15T07:09:29;13.23;;;10.35;;
66425;SDS011;53237;46.158;14.604;2024-01-15T07:11:55;14.75;;;10.82;;
66425;SDS011;53237;46.158;14.604;2024-01-15T07:14:23;18.73;;;11.98;;
66425;SDS011;53237;46.158;14.604;2024-01-15T07:16:49;13.55;;;10.07;;
66425;SDS011;53237;46.158;14.604;2024-01-15T07:19:15;17.92;;;11.93;;
66425;SDS011;53237;46.158;14.604;2024-01-15T07:21:41;18.02;;;13.02;;
66425;SDS011;53237;46.158;14.604;2024-01-15T07:24:08;15.05;;;10.63;;
66425;SDS011;53237;46.158;14.604;2024-01-15T07:26:35;14.98;;;11.52;;
66425;SDS011;53237;46.158;14.604;2024-01-15T07:29:01;15.35;;;10.93;;
66425;SDS011;53237;46.158;14.604;2024-01-15T07:31:28;15.05;;;11.18;;
66425;SDS011;53237;46.158;14.604;2024-01-15T07:33:54;14.70;;;10.15;;
66425;SDS011;53237;46.158;14.604;2024-01-15T07:36:20;17.20;;;12.80;;
66425;SDS011;53237;46.158;14.604;2024-01-15T07:38:46;16.35;;;11.02;;
66425;SDS011;53237;46.158;14.604;2024-01-15T07:41:13;18.13;;;12.38;;
66425;SDS011;53237;46.158;14.604;2024-01-15T07:43:39;23.42;;;16.40;;
66425;SDS011;53237;46.158;14.604;2024-01-15T07:46:05;20.95;;;15.30;;
66425;SDS011;53237;46.158;14.604;2024-01-15T07:48:32;18.55;;;13.52;;
66425;SDS011;53237;46.158;14.604;2024-01-15T07:50:58;39.00;;;24.67;;
66425;SDS011;53237;46.158;14.604;2024-01-15T07:53:24;43.08;;;26.40;;
66425;SDS011;53237;46.158;14.604;2024-01-15T07:55:50;42.45;;;26.45;;
66425;SDS011;53237;46.158;14.604;2024-01-15T07:58:16;38.53;;;24.88;;
66425;SDS011;53237;46.158;14.604;2024-01-15T08:00:42;52.58;;;34.95;;
66425;SDS011;53237;46.158;14.604;2024-01-15T08:03:08;38.92;;;26.10;;
66425;SDS011;53237;46.158;14.604;2024-01-15T08:05:34;33.33;;;22.73;;
66425;SDS011;53237;46.158;14.604;2024-01-15T08:08:00;33.35;;;22.90;;
66425;SDS011;53237;46.158;14.604;2024-01-15T08:10:26;27.92;;;19.38;;
66425;SDS011;53237;46.158;14.604;2024-01-15T08:12:52;33.72;;;23.98;;
66425;SDS011;53237;46.158;14.604;2024-01-15T08:15:18;33.55;;;22.00;;
66425;SDS011;53237;46.158;14.604;2024-01-15T08:17:44;28.73;;;20.20;;
66425;SDS011;53237;46.158;14.604;2024-01-15T08:20:10;24.23;;;17.52;;
66425;SDS011;53237;46.158;14.604;2024-01-15T08:22:38;26.98;;;19.25;;
66425;SDS011;53237;46.158;14.604;2024-01-15T08:25:04;38.15;;;27.45;;
66425;SDS011;53237;46.158;14.604;2024-01-15T08:27:30;30.55;;;21.75;;
66425;SDS011;53237;46.158;14.604;2024-01-15T08:29:56;26.50;;;19.00;;
66425;SDS011;53237;46.158;14.604;2024-01-15T08:32:22;24.67;;;18.58;;
66425;SDS011;53237;46.158;14.604;2024-01-15T08:34:48;24.45;;;18.33;;
66425;SDS011;53237;46.158;14.604;2024-01-15T08:37:17;26.67;;;18.63;;
66425;SDS011;53237;46.158;14.604;2024-01-15T08:39:43;28.13;;;19.67;;
66425;SDS011;53237;46.158;14.604;2024-01-15T08:42:09;29.95;;;20.85;;
66425;SDS011;53237;46.158;14.604;2024-01-15T08:44:36;32.05;;;22.23;;
66425;SDS011;53237;46.158;14.604;2024-01-15T08:47:04;30.95;;;20.52;;
66425;SDS011;53237;46.158;14.604;2024-01-15T08:49:30;29.67;;;20.98;;
66425;SDS011;53237;46.158;14.604;2024-01-15T08:51:56;23.67;;;17.15;;
66425;SDS011;53237;46.158;14.604;2024-01-15T08:54:23;25.20;;;17.35;;
66425;SDS011;53237;46.158;14.604;2024-01-15T08:56:49;23.92;;;17.38;;
66425;SDS011;53237;46.158;14.604;2024-01-15T08:59:15;24.15;;;16.98;;
66425;SDS011;53237;46.158;14.604;2024-01-15T09:01:41;27.15;;;18.98;;
66425;SDS011;53237;46.158;14.604;2024-01-15T09:04:07;37.70;;;24.25;;
66425;SDS011;53237;46.158;14.604;2024-01-15T09:06:33;35.47;;;22.98;;
66425;SDS011;53237;46.158;14.604;2024-01-15T09:08:59;26.65;;;17.25;;
66425;SDS011;53237;46.158;14.604;2024-01-15T09:11:25;26.77;;;18.52;;
66425;SDS011;53237;46.158;14.604;2024-01-15T09:13:51;28.45;;;18.08;;
66425;SDS011;53237;46.158;14.604;2024-01-15T09:16:17;28.33;;;19.23;;
66425;SDS011;53237;46.158;14.604;2024-01-15T09:18:44;31.15;;;19.27;;
66425;SDS011;53237;46.158;14.604;2024-01-15T09:21:11;25.80;;;18.48;;
66425;SDS011;53237;46.158;14.604;2024-01-15T09:23:38;27.02;;;18.95;;
66425;SDS011;53237;46.158;14.604;2024-01-15T09:26:04;22.65;;;16.80;;
66425;SDS011;53237;46.158;14.604;2024-01-15T09:28:30;24.70;;;17.92;;
66425;SDS011;53237;46.158;14.604;2024-01-15T09:30:56;23.38;;;15.77;;
66425;SDS011;53237;46.158;14.604;2024-01-15T09:33:22;25.50;;;17.98;;
66425;SDS011;53237;46.158;14.604;2024-01-15T09:35:48;25.70;;;17.65;;
66425;SDS011;53237;46.158;14.604;2024-01-15T09:38:14;22.33;;;15.70;;
66425;SDS011;53237;46.158;14.604;2024-01-15T09:40:40;24.38;;;17.45;;
66425;SDS011;53237;46.158;14.604;2024-01-15T09:43:08;25.17;;;17.20;;
66425;SDS011;53237;46.158;14.604;2024-01-15T09:45:34;23.85;;;16.80;;
66425;SDS011;53237;46.158;14.604;2024-01-15T09:48:01;21.52;;;16.00;;
66425;SDS011;53237;46.158;14.604;2024-01-15T09:50:27;23.00;;;16.85;;
66425;SDS011;53237;46.158;14.604;2024-01-15T09:52:53;27.38;;;18.38;;
66425;SDS011;53237;46.158;14.604;2024-01-15T09:55:22;26.85;;;18.13;;
66425;SDS011;53237;46.158;14.604;2024-01-15T09:57:48;24.73;;;16.65;;
66425;SDS011;53237;46.158;14.604;2024-01-15T10:00:17;25.65;;;17.55;;
66425;SDS011;53237;46.158;14.604;2024-01-15T10:02:43;22.50;;;15.93;;
66425;SDS011;53237;46.158;14.604;2024-01-15T10:05:09;27.02;;;17.25;;
66425;SDS011;53237;46.158;14.604;2024-01-15T10:07:36;21.80;;;15.75;;
66425;SDS011;53237;46.158;14.604;2024-01-15T10:10:03;19.38;;;14.10;;
66425;SDS011;53237;46.158;14.604;2024-01-15T10:12:29;19.70;;;14.77;;
66425;SDS011;53237;46.158;14.604;2024-01-15T10:14:56;22.38;;;16.00;;
66425;SDS011;53237;46.158;14.604;2024-01-15T10:17:22;24.95;;;15.80;;
66425;SDS011;53237;46.158;14.604;2024-01-15T10:19:50;22.33;;;15.75;;
66425;SDS011;53237;46.158;14.604;2024-01-15T10:22:16;23.10;;;16.17;;
66425;SDS011;53237;46.158;14.604;2024-01-15T10:24:45;22.80;;;15.50;;
66425;SDS011;53237;46.158;14.604;2024-01-15T10:27:12;22.42;;;16.35;;
66425;SDS011;53237;46.158;14.604;2024-01-15T10:29:38;21.95;;;16.52;;
66425;SDS011;53237;46.158;14.604;2024-01-15T10:32:07;21.75;;;15.68;;
66425;SDS011;53237;46.158;14.604;2024-01-15T10:34:35;19.77;;;14.85;;
66425;SDS011;53237;46.158;14.604;2024-01-15T10:37:03;22.35;;;15.70;;
66425;SDS011;53237;46.158;14.604;2024-01-15T10:39:29;18.85;;;14.48;;
66425;SDS011;53237;46.158;14.604;2024-01-15T10:41:55;24.38;;;17.58;;
66425;SDS011;53237;46.158;14.604;2024-01-15T10:44:21;22.65;;;16.40;;
66425;SDS011;53237;46.158;14.604;2024-01-15T10:46:47;24.17;;;17.38;;
66425;SDS011;53237;46.158;14.604;2024-01-15T10:49:13;21.80;;;15.80;;
66425;SDS011;53237;46.158;14.604;2024-01-15T10:51:40;21.88;;;15.93;;
66425;SDS011;53237;46.158;14.604;2024-01-15T10:54:08;31.80;;;19.38;;
66425;SDS011;53237;46.158;14.604;2024-01-15T10:56:36;25.38;;;18.30;;
66425;SDS011;53237;46.158;14.604;2024-01-15T10:59:03;22.15;;;15.32;;
66425;SDS011;53237;46.158;14.604;2024-01-15T11:01:30;25.00;;;17.85;;
66425;SDS011;53237;46.158;14.604;2024-01-15T11:03:56;21.08;;;15.20;;
66425;SDS011;53237;46.158;14.604;2024-01-15T11:06:23;20.35;;;15.55;;
66425;SDS011;53237;46.158;14.604;2024-01-15T11:08:50;21.45;;;15.02;;
66425;SDS011;53237;46.158;14.604;2024-01-15T11:11:17;20.48;;;15.10;;
66425;SDS011;53237;46.158;14.604;2024-01-15T11:13:46;22.30;;;15.93;;
66425;SDS011;53237;46.158;14.604;2024-01-15T11:16:15;21.27;;;16.35;;
66425;SDS011;53237;46.158;14.604;2024-01-15T11:18:42;20.38;;;16.02;;
66425;SDS011;53237;46.158;14.604;2024-01-15T11:26:26;23.80;;;17.33;;
66425;SDS011;53237;46.158;14.604;2024-01-15T11:28:53;22.30;;;15.43;;
66425;SDS011;53237;46.158;14.604;2024-01-15T11:31:19;18.95;;;14.32;;
66425;SDS011;53237;46.158;14.604;2024-01-15T11:33:49;19.45;;;14.45;;
66425;SDS011;53237;46.158;14.604;2024-01-15T11:36:16;68.85;;;44.55;;
66425;SDS011;53237;46.158;14.604;2024-01-15T11:38:42;31.42;;;22.20;;
66425;SDS011;53237;46.158;14.604;2024-01-15T11:41:14;23.48;;;18.27;;
66425;SDS011;53237;46.158;14.604;2024-01-15T11:43:43;26.55;;;19.55;;
66425;SDS011;53237;46.158;14.604;2024-01-15T11:46:12;17.83;;;14.57;;
66425;SDS011;53237;46.158;14.604;2024-01-15T11:48:42;19.42;;;14.55;;
66425;SDS011;53237;46.158;14.604;2024-01-15T11:51:11;17.52;;;14.05;;
66425;SDS011;53237;46.158;14.604;2024-01-15T11:53:44;19.52;;;14.18;;
66425;SDS011;53237;46.158;14.604;2024-01-15T11:56:17;18.67;;;12.90;;
66425;SDS011;53237;46.158;14.604;2024-01-15T11:58:43;16.73;;;13.30;;
66425;SDS011;53237;46.158;14.604;2024-01-15T12:01:12;16.98;;;13.15;;
66425;SDS011;53237;46.158;14.604;2024-01-15T12:03:39;18.95;;;13.88;;
66425;SDS011;53237;46.158;14.604;2024-01-15T12:06:05;19.27;;;13.82;;
66425;SDS011;53237;46.158;14.604;2024-01-15T12:08:32;19.40;;;13.85;;
66425;SDS011;53237;46.158;14.604;2024-01-15T12:10:58;19.30;;;13.30;;
66425;SDS011;53237;46.158;14.604;2024-01-15T12:13:24;18.70;;;13.82;;
66425;SDS011;53237;46.158;14.604;2024-01-15T12:15:50;18.20;;;13.70;;
66425;SDS011;53237;46.158;14.604;2024-01-15T12:18:17;17.00;;;13.32;;
66425;SDS011;53237;46.158;14.604;2024-01-15T12:20:43;16.58;;;12.57;;
66425;SDS011;53237;46.158;14.604;2024-01-15T12:23:11;17.33;;;13.30;;
66425;SDS011;53237;46.158;14.604;2024-01-15T12:25:41;17.45;;;13.45;;
66425;SDS011;53237;46.158;14.604;2024-01-15T12:28:08;17.92;;;14.05;;
66425;SDS011;53237;46.158;14.604;2024-01-15T12:30:35;18.15;;;13.40;;
66425;SDS011;53237;46.158;14.604;2024-01-15T12:33:02;19.38;;;14.48;;
66425;SDS011;53237;46.158;14.604;2024-01-15T12:35:31;20.90;;;15.10;;
66425;SDS011;53237;46.158;14.604;2024-01-15T12:38:01;17.13;;;12.48;;
66425;SDS011;53237;46.158;14.604;2024-01-15T12:40:28;15.90;;;12.13;;
66425;SDS011;53237;46.158;14.604;2024-01-15T12:42:54;17.60;;;12.95;;
66425;SDS011;53237;46.158;14.604;2024-01-15T12:45:20;14.65;;;11.77;;
66425;SDS011;53237;46.158;14.604;2024-01-15T12:47:46;14.52;;;11.30;;
66425;SDS011;53237;46.158;14.604;2024-01-15T12:50:13;14.02;;;11.55;;
66425;SDS011;53237;46.158;14.604;2024-01-15T12:52:42;16.15;;;12.48;;
66425;SDS011;53237;46.158;14.604;2024-01-15T12:55:08;16.40;;;12.88;;
66425;SDS011;53237;46.158;14.604;2024-01-15T12:57:34;19.35;;;13.90;;
66425;SDS011;53237;46.158;14.604;2024-01-15T13:00:01;13.85;;;11.05;;
66425;SDS011;53237;46.158;14.604;2024-01-15T13:02:31;14.23;;;11.05;;
66425;SDS011;53237;46.158;14.604;2024-01-15T13:04:58;15.35;;;10.88;;
66425;SDS011;53237;46.158;14.604;2024-01-15T13:07:24;15.27;;;11.32;;
66425;SDS011;53237;46.158;14.604;2024-01-15T13:09:50;13.93;;;11.35;;
66425;SDS011;53237;46.158;14.604;2024-01-15T13:12:18;15.35;;;11.52;;
66425;SDS011;53237;46.158;14.604;2024-01-15T13:14:45;16.88;;;12.13;;
66425;SDS011;53237;46.158;14.604;2024-01-15T13:17:12;16.00;;;11.98;;
66425;SDS011;53237;46.158;14.604;2024-01-15T13:19:39;21.52;;;14.02;;
66425;SDS011;53237;46.158;14.604;2024-01-15T13:22:05;17.92;;;13.63;;
66425;SDS011;53237;46.158;14.604;2024-01-15T13:24:34;18.27;;;12.98;;
66425;SDS011;53237;46.158;14.604;2024-01-15T13:27:01;17.33;;;12.70;;
66425;SDS011;53237;46.158;14.604;2024-01-15T13:29:29;19.52;;;15.10;;
66425;SDS011;53237;46.158;14.604;2024-01-15T13:31:55;20.55;;;15.05;;
66425;SDS011;53237;46.158;14.604;2024-01-15T13:34:21;15.93;;;12.60;;
66425;SDS011;53237;46.158;14.604;2024-01-15T13:36:47;14.50;;;10.77;;
66425;SDS011;53237;46.158;14.604;2024-01-15T13:39:14;14.10;;;11.35;;
66425;SDS011;53237;46.158;14.604;2024-01-15T13:41:45;19.90;;;13.40;;
66425;SDS011;53237;46.158;14.604;2024-01-15T13:44:11;16.08;;;12.10;;
66425;SDS011;53237;46.158;14.604;2024-01-15T13:46:37;15.60;;;11.48;;
66425;SDS011;53237;46.158;14.604;2024-01-15T13:49:03;19.85;;;13.73;;
66425;SDS011;53237;46.158;14.604;2024-01-15T13:51:31;20.65;;;14.75;;
66425;SDS011;53237;46.158;14.604;2024-01-15T13:53:57;24.65;;;16.45;;
66425;SDS011;53237;46.158;14.604;2024-01-15T13:56:23;25.52;;;17.77;;
66425;SDS011;53237;46.158;14.604;2024-01-15T13:58:49;43.05;;;26.08;;
66425;SDS011;53237;46.158;14.604;2024-01-15T14:01:16;22.30;;;15.18;;
66425;SDS011;53237;46.158;14.604;2024-01-15T14:03:43;17.67;;;12.68;;
66425;SDS011;53237;46.158;14.604;2024-01-15T14:06:09;29.23;;;19.30;;
66425;SDS011;53237;46.158;14.604;2024-01-15T14:08:35;32.80;;;21.63;;